Time;durP1;ratioP1;P1;durP2;ratioP2;P2;SDS_P1;SDS_P2;PMS_P1;PMS_P2;Temp;Humidity;BMP_temperature;BMP_pressure;BME280_temperature;BME280_humidity;BME280_pressure;Samples;Min_cycle;Max_cycle;Signal;HPM_P1;HPM_P2
2023/01/04 00:00:48;;;;;;;1.40;0.60;;;;;16.60;101008.00;;;;2079407;28;20266;-54
2023/01/04 00:01:49;;;;;;;1.47;0.77;;;;;16.50;101022.00;;;;2077138;28;20214;-54
2023/01/04 00:02:49;;;;;;;1.33;0.63;;;;;16.60;101010.00;;;;2079224;28;20209;-54
2023/01/04 00:03:49;;;;;;;1.80;0.67;;;;;16.60;101029.00;;;;2079566;28;20278;-54
2023/01/04 00:04:49;;;;;;;1.13;0.60;;;;;16.60;101029.00;;;;2079199;28;20209;-54
2023/01/04 00:05:50;;;;;;;1.10;0.67;;;;;16.60;101033.00;;;;2079403;28;20221;-54
2023/01/04 00:06:50;;;;;;;1.10;0.63;;;;;16.60;101015.00;;;;2079347;28;20272;-54
2023/01/04 00:07:50;;;;;;;1.10;0.60;;;;;16.60;101025.00;;;;2079697;28;20214;-54
2023/01/04 00:08:51;;;;;;;1.07;0.70;;;;;16.60;101025.00;;;;2079547;28;20264;-54
2023/01/04 00:09:51;;;;;;;2.13;1.17;;;;;16.60;101019.00;;;;2078590;28;20209;-54
2023/01/04 00:10:51;;;;;;;1.37;0.63;;;;;16.60;101023.00;;;;2078637;28;20263;-54
2023/01/04 00:11:52;;;;;;;1.00;0.50;;;;;16.60;101011.00;;;;2077853;28;20221;-54
2023/01/04 00:12:52;;;;;;;1.17;0.53;;;;;16.60;101006.00;;;;2079454;28;20296;-54
2023/01/04 00:13:55;;;;;;;0.90;0.53;;;;;16.60;101007.00;;;;2079160;28;20214;-54
2023/01/04 00:14:55;;;;;;;1.30;0.85;;;;;16.60;100992.00;;;;2079337;28;20300;-54
2023/01/04 00:15:56;;;;;;;1.50;0.57;;;;;16.60;100996.00;;;;2079473;28;20213;-54
2023/01/04 00:16:56;;;;;;;0.80;0.50;;;;;16.60;100987.00;;;;2078465;28;20719;-54
2023/01/04 00:17:57;;;;;;;1.63;0.60;;;;;16.60;100991.00;;;;2078431;28;20249;-54
2023/01/04 00:18:57;;;;;;;1.00;0.50;;;;;16.60;100995.00;;;;2079264;28;20218;-54
2023/01/04 00:19:58;;;;;;;0.90;0.60;;;;;16.50;100998.00;;;;2079252;28;20218;-54
2023/01/04 00:21:14;;;;;;;1.17;0.80;;;;;16.60;100989.00;;;;2079349;28;20240;-54
2023/01/04 00:22:14;;;;;;;1.17;0.70;;;;;16.60;100981.00;;;;2078236;28;20744;-54
2023/01/04 00:23:15;;;;;;;1.17;0.60;;;;;16.60;100987.00;;;;2079202;28;20240;-54
2023/01/04 00:24:15;;;;;;;1.00;0.60;;;;;16.60;100984.00;;;;2079222;28;20271;-54
2023/01/04 00:25:15;;;;;;;1.00;0.63;;;;;16.60;100983.00;;;;2078941;28;20217;-54
2023/01/04 00:26:20;;;;;;;0.80;0.50;;;;;16.60;100987.00;;;;2079334;28;20229;-54
2023/01/04 00:27:20;;;;;;;1.48;0.75;;;;;16.60;100980.00;;;;2078587;28;20384;-54
2023/01/04 00:28:21;;;;;;;1.13;0.60;;;;;16.60;100978.00;;;;2078241;28;20252;-54
2023/01/04 00:29:21;;;;;;;1.90;1.10;;;;;16.60;100978.00;;;;2079200;28;20736;-54
2023/01/04 00:30:21;;;;;;;0.80;0.60;;;;;16.60;100970.00;;;;2072901;28;20738;-54
2023/01/04 00:31:22;;;;;;;1.53;0.67;;;;;16.60;100985.00;;;;2070872;28;20218;-54
2023/01/04 00:32:22;;;;;;;1.23;0.60;;;;;16.60;100972.00;;;;2075202;28;20297;-54
2023/01/04 00:33:23;;;;;;;1.57;0.70;;;;;16.60;100980.00;;;;2078412;28;20211;-54
2023/01/04 00:34:23;;;;;;;1.93;0.60;;;;;16.60;100968.00;;;;2079227;28;20237;-54
2023/01/04 00:35:23;;;;;;;1.37;0.60;;;;;16.60;100966.00;;;;2079104;28;20213;-54
2023/01/04 00:36:24;;;;;;;1.27;0.73;;;;;16.60;100966.00;;;;2078930;28;20206;-54
2023/01/04 00:37:24;;;;;;;1.10;0.63;;;;;16.50;100965.00;;;;2078893;28;20230;-54
2023/01/04 00:38:25;;;;;;;0.93;0.70;;;;;16.60;100960.00;;;;2078915;28;20213;-54
2023/01/04 00:39:25;;;;;;;0.90;0.53;;;;;16.60;100960.00;;;;2079139;28;20210;-54
2023/01/04 00:40:25;;;;;;;1.43;0.70;;;;;16.60;100962.00;;;;2078966;28;20307;-53
2023/01/04 00:41:25;;;;;;;0.90;0.60;;;;;16.50;100946.00;;;;2076332;28;20214;-54
2023/01/04 00:42:26;;;;;;;1.10;0.60;;;;;16.50;100954.00;;;;2078245;28;20214;-54
2023/01/04 00:43:26;;;;;;;2.37;0.63;;;;;16.50;100955.00;;;;2079201;28;20263;-54
2023/01/04 00:44:27;;;;;;;1.00;0.63;;;;;16.50;100953.00;;;;2079015;28;20218;-54
2023/01/04 00:45:27;;;;;;;0.93;0.60;;;;;16.60;100954.00;;;;2078681;28;20631;-54
2023/01/04 00:46:28;;;;;;;0.90;0.60;;;;;16.60;100947.00;;;;2079125;28;20493;-54
2023/01/04 00:47:28;;;;;;;0.90;0.40;;;;;16.60;100945.00;;;;2078938;28;20233;-54
2023/01/04 00:48:29;;;;;;;1.33;0.60;;;;;16.60;100950.00;;;;2079000;28;21473;-54
2023/01/04 00:49:29;;;;;;;1.20;0.53;;;;;16.60;100943.00;;;;2078432;28;20724;-54
2023/01/04 00:50:30;;;;;;;1.20;0.80;;;;;16.60;100939.00;;;;2079036;28;20238;-53
2023/01/04 00:51:30;;;;;;;0.80;0.50;;;;;16.50;100942.00;;;;2079152;28;20748;-54
2023/01/04 00:52:31;;;;;;;1.43;0.60;;;;;16.60;100933.00;;;;2078145;28;20621;-54
2023/01/04 00:53:31;;;;;;;1.00;0.60;;;;;16.50;100936.00;;;;2079288;28;20215;-53
2023/01/04 00:54:31;;;;;;;0.90;0.60;;;;;16.60;100942.00;;;;2078594;28;20221;-54
2023/01/04 00:55:32;;;;;;;1.30;0.70;;;;;16.50;100921.00;;;;2079080;28;20233;-53
2023/01/04 00:56:32;;;;;;;0.83;0.50;;;;;16.50;100933.00;;;;2079279;28;20253;-53
2023/01/04 00:57:33;;;;;;;0.80;0.60;;;;;16.50;100927.00;;;;2079044;28;20229;-54
2023/01/04 00:58:33;;;;;;;1.00;0.50;;;;;16.50;100933.00;;;;2078255;28;20214;-54
2023/01/04 00:59:33;;;;;;;1.27;0.60;;;;;16.60;100923.00;;;;2079065;28;20233;-53
2023/01/04 01:00:34;;;;;;;0.97;0.60;;;;;16.50;100912.00;;;;2079173;28;20248;-54
2023/01/04 01:01:34;;;;;;;1.60;0.60;;;;;16.50;100919.00;;;;2079269;28;20214;-53
2023/01/04 01:02:35;;;;;;;0.70;0.43;;;;;16.60;100908.00;;;;2078384;28;20260;-54
2023/01/04 01:03:35;;;;;;;1.10;0.53;;;;;16.50;100914.00;;;;2078827;28;20580;-53
2023/01/04 01:04:35;;;;;;;0.80;0.50;;;;;16.50;100924.00;;;;2079274;28;20684;-54
2023/01/04 01:05:36;;;;;;;1.00;0.60;;;;;16.50;100915.00;;;;2078613;28;20217;-54
2023/01/04 01:06:36;;;;;;;1.27;0.60;;;;;16.50;100907.00;;;;2079047;28;20310;-53
2023/01/04 01:07:36;;;;;;;1.20;0.57;;;;;16.50;100894.00;;;;2079431;28;20221;-53
2023/01/04 01:08:37;;;;;;;0.80;0.50;;;;;16.50;100911.00;;;;2079080;28;20232;-54
2023/01/04 01:09:37;;;;;;;0.87;0.60;;;;;16.50;100889.00;;;;2079159;28;20745;-54
2023/01/04 01:10:37;;;;;;;1.20;0.60;;;;;16.50;100896.00;;;;2078797;28;20643;-54
2023/01/04 01:11:39;;;;;;;1.30;0.80;;;;;16.50;100898.00;;;;2078193;28;20719;-53
2023/01/04 01:12:39;;;;;;;1.45;0.85;;;;;16.60;100892.00;;;;2077815;28;20817;-53
2023/01/04 01:13:39;;;;;;;0.93;0.60;;;;;16.60;100892.00;;;;2078915;28;20325;-54
2023/01/04 01:14:40;;;;;;;0.90;0.60;;;;;16.50;100893.00;;;;2079064;28;20696;-54
2023/01/04 01:15:40;;;;;;;0.93;0.60;;;;;16.50;100900.00;;;;2078990;28;20552;-54
2023/01/04 01:16:40;;;;;;;0.80;0.40;;;;;16.60;100895.00;;;;2079406;28;20584;-54
2023/01/04 01:17:40;;;;;;;0.80;0.50;;;;;16.50;100890.00;;;;2079313;28;20933;-54
2023/01/04 01:18:42;;;;;;;0.80;0.73;;;;;16.50;100879.00;;;;2079103;28;20587;-54
2023/01/04 01:19:42;;;;;;;1.70;0.70;;;;;16.60;100889.00;;;;2079157;28;20217;-54
2023/01/04 01:20:43;;;;;;;0.80;0.67;;;;;16.50;100881.00;;;;2078847;28;20213;-54
2023/01/04 01:21:43;;;;;;;1.20;0.70;;;;;16.50;100880.00;;;;2078791;28;20228;-54
2023/01/04 01:22:43;;;;;;;1.23;0.60;;;;;16.50;100894.00;;;;2076895;28;20213;-54
2023/01/04 01:23:44;;;;;;;0.70;0.43;;;;;16.60;100887.00;;;;2078831;28;20225;-54
2023/01/04 01:24:44;;;;;;;1.00;0.80;;;;;16.60;100879.00;;;;2078757;28;20213;-54
2023/01/04 01:25:45;;;;;;;1.20;0.60;;;;;16.50;100885.00;;;;2078803;28;20222;-54
2023/01/04 01:26:45;;;;;;;0.70;0.50;;;;;16.50;100877.00;;;;2079033;28;20218;-54
2023/01/04 01:27:45;;;;;;;1.20;0.60;;;;;16.60;100870.00;;;;2079072;28;20256;-54
2023/01/04 01:28:46;;;;;;;0.80;0.50;;;;;16.50;100879.00;;;;2078780;28;20205;-54
2023/01/04 01:29:46;;;;;;;1.07;0.57;;;;;16.50;100877.00;;;;2079060;28;20221;-53
2023/01/04 01:30:46;;;;;;;1.00;0.60;;;;;16.60;100863.00;;;;2078864;28;20876;-54
2023/01/04 01:31:47;;;;;;;1.00;0.80;;;;;16.50;100862.00;;;;2078329;28;20672;-54
2023/01/04 01:32:47;;;;;;;1.03;0.70;;;;;16.50;100864.00;;;;2078659;28;20237;-54
2023/01/04 01:33:48;;;;;;;0.90;0.60;;;;;16.60;100860.00;;;;2078634;28;20586;-54
2023/01/04 01:34:48;;;;;;;1.13;0.60;;;;;16.50;100871.00;;;;2078717;28;20224;-54
2023/01/04 01:35:48;;;;;;;0.97;0.57;;;;;16.50;100858.00;;;;2079003;28;20209;-54
2023/01/04 01:36:49;;;;;;;0.90;0.50;;;;;16.50;100861.00;;;;2078852;28;20263;-54
2023/01/04 01:37:49;;;;;;;1.27;0.60;;;;;16.50;100852.00;;;;2078492;28;20210;-54
2023/01/04 01:38:49;;;;;;;1.07;0.60;;;;;16.50;100856.00;;;;2079027;28;20220;-55
2023/01/04 01:39:50;;;;;;;0.93;0.63;;;;;16.50;100856.00;;;;2078786;28;20206;-54
2023/01/04 01:40:50;;;;;;;1.10;0.70;;;;;16.60;100856.00;;;;2077067;28;20236;-55
2023/01/04 01:41:50;;;;;;;0.70;0.50;;;;;16.50;100866.00;;;;2069638;28;20226;-53
2023/01/04 01:42:51;;;;;;;1.10;0.60;;;;;16.60;100844.00;;;;2070241;28;20302;-54
2023/01/04 01:44:02;;;;;;;0.90;0.60;;;;;16.50;100850.00;;;;2070758;28;20229;-54
2023/01/04 01:45:09;;;;;;;1.25;0.70;;;;;16.60;100851.00;;;;2079034;28;20905;-54
2023/01/04 01:46:10;;;;;;;1.60;0.70;;;;;16.60;100828.00;;;;2078928;28;20229;-54
2023/01/04 01:47:16;;;;;;;1.33;0.60;;;;;16.60;100844.00;;;;2078132;28;20686;-54
2023/01/04 01:48:22;;;;;;;1.25;0.70;;;;;16.50;100844.00;;;;2070615;28;20304;-54
2023/01/04 01:49:25;;;;;;;1.13;0.60;;;;;16.60;100836.00;;;;2069570;28;20289;-54
2023/01/04 01:50:28;;;;;;;1.40;0.70;;;;;16.50;100837.00;;;;2070609;28;20206;-54
2023/01/04 01:51:28;;;;;;;0.70;0.43;;;;;16.60;100856.00;;;;2069982;28;20214;-54
2023/01/04 01:52:30;;;;;;;0.70;0.50;;;;;16.50;100844.00;;;;2068887;28;20195;-54
2023/01/04 01:53:33;;;;;;;1.45;0.63;;;;;16.50;100846.00;;;;2069819;28;20702;-54
2023/01/04 01:54:35;;;;;;;0.80;0.50;;;;;16.50;100845.00;;;;2062068;28;20223;-54
2023/01/04 01:55:35;;;;;;;1.42;0.73;;;;;16.50;100848.00;;;;2075608;28;20706;-54
2023/01/04 01:56:36;;;;;;;1.20;0.63;;;;;16.50;100846.00;;;;2085806;28;20223;-54
2023/01/04 01:57:37;;;;;;;0.90;0.50;;;;;16.50;100835.00;;;;2077504;28;20214;-54
2023/01/04 01:58:39;;;;;;;1.27;0.80;;;;;16.50;100851.00;;;;2069775;28;20858;-54
2023/01/04 01:59:40;;;;;;;1.27;0.73;;;;;16.50;100832.00;;;;2078013;28;20251;-54
2023/01/04 02:00:40;;;;;;;1.40;0.77;;;;;16.50;100852.00;;;;2061820;28;20793;-54
2023/01/04 02:01:40;;;;;;;1.03;0.60;;;;;16.50;100847.00;;;;2069880;28;20218;-54
2023/01/04 02:02:58;;;;;;;0.80;0.50;;;;;16.50;100834.00;;;;2076605;28;20209;-54
2023/01/04 02:03:58;;;;;;;1.10;0.50;;;;;16.50;100846.00;;;;2068415;28;20991;-55
2023/01/04 02:04:58;;;;;;;0.70;0.50;;;;;16.50;100844.00;;;;2069727;28;20250;-54
2023/01/04 02:05:59;;;;;;;0.90;0.60;;;;;16.50;100846.00;;;;2069415;28;20230;-54
2023/01/04 02:06:59;;;;;;;1.67;0.60;;;;;16.50;100837.00;;;;2077902;28;20240;-54
2023/01/04 02:07:59;;;;;;;1.20;0.60;;;;;16.50;100839.00;;;;2061328;28;20292;-54
2023/01/04 02:09:00;;;;;;;0.90;0.50;;;;;16.50;100859.00;;;;2068641;28;20711;-54
2023/01/04 02:10:00;;;;;;;0.90;0.50;;;;;16.50;100853.00;;;;2069456;28;20679;-54
2023/01/04 02:11:01;;;;;;;1.00;0.50;;;;;16.50;100848.00;;;;2069883;28;20483;-54
2023/01/04 02:12:01;;;;;;;1.83;0.70;;;;;16.60;100847.00;;;;2076387;28;20215;-54
2023/01/04 02:13:05;;;;;;;0.70;0.50;;;;;16.50;100844.00;;;;2078636;28;20432;-54
2023/01/04 02:15:25;;;;;;;1.20;0.65;;;;;16.50;100834.00;;;;2071375;28;20213;-54
2023/01/04 02:16:55;;;;;;;1.52;0.90;;;;;16.50;100850.00;;;;2070608;28;20306;-55
2023/01/04 02:18:10;;;;;;;1.08;0.50;;;;;16.60;100834.00;;;;2073006;28;20242;-58
2023/01/04 02:19:36;;;;;;;1.40;0.57;;;;;16.50;100831.00;;;;2078582;28;21053;-54
2023/01/04 02:20:49;;;;;;;0.85;0.60;;;;;16.50;100837.00;;;;2067397;28;20257;-54
2023/01/04 02:22:07;;;;;;;1.00;0.50;;;;;16.50;100837.00;;;;2068485;28;20218;-54
2023/01/04 02:23:16;;;;;;;0.90;0.70;;;;;16.50;100816.00;;;;2066196;28;20214;-54
2023/01/04 02:24:41;;;;;;;1.15;0.70;;;;;16.50;100828.00;;;;2075291;28;20226;-54
2023/01/04 02:26:03;;;;;;;1.88;0.57;;;;;16.50;100811.00;;;;2078153;28;20234;-54
2023/01/04 02:27:25;;;;;;;1.40;0.60;;;;;16.50;100830.00;;;;2078322;28;20237;-54
2023/01/04 02:28:53;;;;;;;0.80;0.50;;;;;16.50;100825.00;;;;2076917;28;20217;-53
2023/01/04 02:30:17;;;;;;;1.65;0.60;;;;;16.50;100819.00;;;;2077716;28;20218;-54
2023/01/04 02:31:20;;;;;;;1.50;0.60;;;;;16.50;100808.00;;;;2077519;28;20225;-54
2023/01/04 02:32:55;;;;;;;0.77;0.50;;;;;16.50;100817.00;;;;2068477;28;20296;-54
2023/01/04 02:34:11;;;;;;;1.10;0.60;;;;;16.50;100820.00;;;;2069107;28;20382;-54
2023/01/04 02:35:24;;;;;;;1.08;0.60;;;;;16.50;100818.00;;;;2065611;28;20205;-54
2023/01/04 02:36:47;;;;;;;1.13;0.50;;;;;16.50;100804.00;;;;2053349;28;20755;-54
2023/01/04 02:37:56;;;;;;;1.02;0.50;;;;;16.50;100816.00;;;;2070864;28;20894;-54
2023/01/04 02:39:04;;;;;;;1.10;0.60;;;;;16.50;100787.00;;;;2076568;28;20688;-54
2023/01/04 02:40:32;;;;;;;1.08;0.60;;;;;16.50;100802.00;;;;2060958;28;20219;-54
2023/01/04 02:41:36;;;;;;;1.13;0.68;;;;;16.50;100786.00;;;;2046111;28;20254;-53
2023/01/04 02:45:41;;;;;;;1.00;0.73;;;;;16.50;100798.00;;;;2073236;28;20221;-54
2023/01/04 02:46:47;;;;;;;1.00;0.50;;;;;16.50;100794.00;;;;2068545;28;20218;-54
2023/01/04 02:50:31;;;;;;;0.80;0.60;;;;;16.50;100784.00;;;;2076823;28;20209;-54
2023/01/04 02:51:33;;;;;;;1.10;0.60;;;;;16.50;100797.00;;;;2068952;28;20237;-54
2023/01/04 02:52:33;;;;;;;1.35;0.60;;;;;16.50;100789.00;;;;2067555;28;20225;-54
2023/01/04 02:53:35;;;;;;;1.03;0.50;;;;;16.50;100783.00;;;;2077435;28;20216;-55
2023/01/04 02:54:35;;;;;;;1.23;0.50;;;;;16.50;100786.00;;;;2069125;28;20214;-54
2023/01/04 02:55:51;;;;;;;1.00;0.50;;;;;16.50;100792.00;;;;2076469;28;20602;-54
2023/01/04 02:57:06;;;;;;;0.95;0.40;;;;;16.50;100805.00;;;;2077896;28;20579;-54
2023/01/04 02:58:29;;;;;;;1.00;0.50;;;;;16.50;100778.00;;;;2077768;28;20660;-54
2023/01/04 03:00:08;;;;;;;1.35;0.63;;;;;16.50;100771.00;;;;2076662;28;20724;-54
2023/01/04 03:07:11;;;;;;;1.35;0.85;;;;;16.50;100779.00;;;;2074569;28;20217;-54
2023/01/04 03:08:17;;;;;;;1.50;0.60;;;;;16.50;100779.00;;;;2069031;28;20236;-54
2023/01/04 03:09:20;;;;;;;0.90;0.50;;;;;16.50;100769.00;;;;2069632;28;20225;-54
2023/01/04 03:10:38;;;;;;;1.58;0.90;;;;;16.50;100773.00;;;;2068726;28;21094;-54
2023/01/04 03:13:17;;;;;;;0.70;0.50;;;;;16.50;100771.00;;;;2072254;28;20213;-54
2023/01/04 03:14:25;;;;;;;0.85;0.50;;;;;16.50;100771.00;;;;2077333;28;20209;-54
2023/01/04 03:15:27;;;;;;;1.15;0.52;;;;;16.50;100768.00;;;;2069172;28;26110;-54
2023/01/04 03:16:28;;;;;;;1.17;0.70;;;;;16.50;100767.00;;;;2061692;28;20984;-54
2023/01/04 03:17:32;;;;;;;1.97;0.60;;;;;16.50;100765.00;;;;2053145;28;20215;-54
2023/01/04 03:18:35;;;;;;;1.00;0.50;;;;;16.40;100763.00;;;;2053894;28;20219;-54
2023/01/04 03:19:50;;;;;;;0.90;0.50;;;;;16.50;100771.00;;;;2061743;28;20808;-54
2023/01/04 03:20:51;;;;;;;1.00;0.65;;;;;16.50;100769.00;;;;2069340;28;20262;-54
2023/01/04 03:21:51;;;;;;;1.13;0.50;;;;;16.50;100769.00;;;;2067846;28;20343;-54
2023/01/04 03:35:28;;;;;;;1.23;0.60;;;;;16.50;100738.00;;;;2077285;28;20664;-54
2023/01/04 03:36:44;;;;;;;1.42;0.70;;;;;16.50;100735.00;;;;2071248;28;26727;-54
2023/01/04 03:37:50;;;;;;;0.80;0.50;;;;;16.50;100741.00;;;;2067242;28;20233;-54
2023/01/04 03:48:54;;;;;;;1.00;0.47;;;;;16.50;100726.00;;;;2071730;28;20218;-54
2023/01/04 03:49:58;;;;;;;1.45;0.75;;;;;16.50;100736.00;;;;2074562;28;20217;-54
2023/01/04 03:51:13;;;;;;;0.90;0.70;;;;;16.50;100730.00;;;;2071806;28;20742;-54
2023/01/04 03:52:14;;;;;;;1.27;0.55;;;;;16.50;100725.00;;;;2072486;28;20219;-54
2023/01/04 03:53:14;;;;;;;1.00;0.50;;;;;16.50;100733.00;;;;2071517;28;20614;-54
2023/01/04 03:54:37;;;;;;;0.90;0.60;;;;;16.50;100721.00;;;;2071767;28;20309;-54
2023/01/04 03:55:37;;;;;;;1.45;0.50;;;;;16.50;100722.00;;;;2079437;28;20275;-54
2023/01/04 03:56:40;;;;;;;1.57;0.50;;;;;16.50;100719.00;;;;2071683;28;20317;-54
2023/01/04 03:57:40;;;;;;;0.90;0.50;;;;;16.50;100719.00;;;;2072142;28;20280;-54
2023/01/04 03:58:41;;;;;;;0.83;0.67;;;;;16.50;100707.00;;;;2064285;28;20265;-54
2023/01/04 03:59:47;;;;;;;0.90;0.60;;;;;16.50;100709.00;;;;2063303;28;20215;-54
2023/01/04 04:00:47;;;;;;;1.15;0.50;;;;;16.50;100708.00;;;;2072051;28;20217;-54
2023/01/04 04:01:47;;;;;;;0.70;0.50;;;;;16.50;100699.00;;;;2079097;28;20757;-54
2023/01/04 04:02:48;;;;;;;0.73;0.40;;;;;16.50;100692.00;;;;2066563;28;20302;-53
2023/01/04 04:09:04;;;;;;;1.10;0.50;;;;;16.50;100690.00;;;;2080546;28;20233;-54
2023/01/04 04:10:04;;;;;;;0.80;0.60;;;;;16.50;100692.00;;;;2080493;28;20222;-54
2023/01/04 04:12:23;;;;;;;2.65;0.65;;;;;16.50;100694.00;;;;2079449;28;20217;-54
2023/01/04 04:13:23;;;;;;;1.00;0.53;;;;;16.50;100693.00;;;;2080748;28;20210;-54
2023/01/04 04:14:24;;;;;;;0.90;0.43;;;;;16.50;100689.00;;;;2080352;28;20249;-54
2023/01/04 04:15:24;;;;;;;1.20;0.70;;;;;16.50;100689.00;;;;2077030;28;20218;-54
2023/01/04 04:16:25;;;;;;;0.70;0.50;;;;;16.50;100685.00;;;;2080049;28;20212;-54
2023/01/04 04:17:25;;;;;;;0.70;0.47;;;;;16.50;100668.00;;;;2074824;28;20210;-54
2023/01/04 04:18:25;;;;;;;0.70;0.50;;;;;16.50;100668.00;;;;2073996;28;21078;-54
2023/01/04 04:19:26;;;;;;;0.83;0.57;;;;;16.50;100677.00;;;;2080206;28;21074;-54
2023/01/04 04:20:26;;;;;;;0.80;0.50;;;;;16.50;100672.00;;;;2080579;28;21095;-54
2023/01/04 04:21:26;;;;;;;0.80;0.57;;;;;16.50;100675.00;;;;2080662;28;20592;-54
2023/01/04 04:22:27;;;;;;;1.30;0.70;;;;;16.50;100664.00;;;;2079206;28;20951;-54
2023/01/04 04:23:27;;;;;;;0.80;0.60;;;;;16.50;100661.00;;;;2080859;28;20237;-54
2023/01/04 04:24:27;;;;;;;1.20;0.50;;;;;16.50;100670.00;;;;2080480;28;20705;-54
2023/01/04 04:25:27;;;;;;;1.07;0.57;;;;;16.50;100667.00;;;;2080471;28;20836;-54
2023/01/04 04:26:28;;;;;;;0.90;0.50;;;;;16.50;100675.00;;;;2079973;28;20584;-54
2023/01/04 04:27:28;;;;;;;1.00;0.50;;;;;16.50;100669.00;;;;2080833;28;20546;-54
2023/01/04 04:28:29;;;;;;;0.80;0.50;;;;;16.50;100656.00;;;;2080827;28;20245;-54
2023/01/04 04:29:29;;;;;;;1.07;0.50;;;;;16.50;100661.00;;;;2080849;28;20202;-54
2023/01/04 04:30:30;;;;;;;1.43;0.70;;;;;16.50;100665.00;;;;2080713;28;20241;-54
2023/01/04 04:31:30;;;;;;;0.90;0.60;;;;;16.50;100659.00;;;;2080324;28;20289;-54
2023/01/04 04:32:30;;;;;;;1.27;0.60;;;;;16.50;100671.00;;;;2078684;28;20212;-53
2023/01/04 04:33:31;;;;;;;0.80;0.53;;;;;16.50;100677.00;;;;2079549;28;20603;-54
2023/01/04 04:34:31;;;;;;;0.73;0.40;;;;;16.50;100677.00;;;;2080167;28;20624;-54
2023/01/04 04:35:31;;;;;;;0.70;0.40;;;;;16.50;100674.00;;;;2080595;28;20248;-54
2023/01/04 04:36:32;;;;;;;0.80;0.60;;;;;16.50;100675.00;;;;2080197;28;20279;-54
2023/01/04 04:37:33;;;;;;;1.10;0.77;;;;;16.50;100669.00;;;;2080231;28;20226;-54
2023/01/04 04:38:34;;;;;;;0.75;0.50;;;;;16.50;100667.00;;;;2078715;28;20248;-54
2023/01/04 04:39:34;;;;;;;0.80;0.50;;;;;16.50;100665.00;;;;2079283;28;20716;-54
2023/01/04 04:41:56;;;;;;;1.13;0.40;;;;;16.50;100656.00;;;;2069378;28;20218;-55
2023/01/04 04:42:56;;;;;;;0.80;0.50;;;;;16.50;100666.00;;;;2071233;28;20207;-55
2023/01/04 04:43:57;;;;;;;0.70;0.40;;;;;16.50;100666.00;;;;2070775;28;20210;-54
2023/01/04 04:44:57;;;;;;;1.10;0.50;;;;;16.50;100660.00;;;;2070948;28;20225;-54
2023/01/04 04:45:57;;;;;;;0.73;0.60;;;;;16.50;100648.00;;;;2070884;28;20219;-54
2023/01/04 04:46:58;;;;;;;1.07;0.50;;;;;16.50;100644.00;;;;2070822;28;20269;-54
2023/01/04 04:47:58;;;;;;;0.70;0.40;;;;;16.50;100652.00;;;;2071157;28;20219;-54
2023/01/04 04:48:58;;;;;;;0.87;0.50;;;;;16.50;100651.00;;;;2071013;28;20234;-54
2023/01/04 04:49:59;;;;;;;0.93;0.83;;;;;16.50;100655.00;;;;2070999;28;20217;-54
2023/01/04 04:50:59;;;;;;;0.90;0.50;;;;;16.50;100645.00;;;;2070865;28;20221;-53
2023/01/04 04:51:59;;;;;;;0.90;0.50;;;;;16.50;100645.00;;;;2069578;28;20252;-54
2023/01/04 04:53:00;;;;;;;1.63;0.50;;;;;16.50;100642.00;;;;2071048;28;20252;-54
2023/01/04 04:54:00;;;;;;;1.00;0.60;;;;;16.50;100649.00;;;;2071177;28;20203;-53
2023/01/04 04:55:00;;;;;;;0.80;0.50;;;;;16.50;100648.00;;;;2071037;28;20210;-54
2023/01/04 04:56:01;;;;;;;1.10;0.57;;;;;16.50;100641.00;;;;2070075;28;20237;-54
2023/01/04 04:57:01;;;;;;;2.07;0.90;;;;;16.50;100651.00;;;;2070973;28;20218;-54
2023/01/04 04:58:01;;;;;;;0.90;0.63;;;;;16.50;100641.00;;;;2070762;28;20313;-54
2023/01/04 04:59:04;;;;;;;0.77;0.50;;;;;16.50;100633.00;;;;2070907;28;20229;-54
2023/01/04 05:00:06;;;;;;;0.70;0.50;;;;;16.50;100637.00;;;;2071019;28;20716;-54
2023/01/04 05:01:06;;;;;;;1.45;0.70;;;;;16.50;100637.00;;;;2071133;28;20219;-54
2023/01/04 05:02:06;;;;;;;0.70;0.50;;;;;16.50;100638.00;;;;2068755;28;20611;-54
2023/01/04 05:03:07;;;;;;;1.47;0.60;;;;;16.50;100631.00;;;;2070217;28;20328;-54
2023/01/04 05:04:07;;;;;;;1.30;0.50;;;;;16.50;100614.00;;;;2071017;28;20360;-54
2023/01/04 05:05:08;;;;;;;0.90;0.63;;;;;16.50;100619.00;;;;2070758;28;20215;-54
2023/01/04 05:06:08;;;;;;;0.90;0.60;;;;;16.50;100612.00;;;;2070579;28;20218;-54
2023/01/04 05:07:08;;;;;;;1.07;0.57;;;;;16.50;100581.00;;;;2070765;28;20752;-54
2023/01/04 05:08:09;;;;;;;0.80;0.50;;;;;16.50;100603.00;;;;2070887;28;20772;-54
2023/01/04 05:09:10;;;;;;;0.90;0.50;;;;;16.50;100604.00;;;;2071028;28;20646;-54
2023/01/04 05:10:10;;;;;;;0.85;0.50;;;;;16.50;100615.00;;;;2069457;28;20297;-54
2023/01/04 05:11:11;;;;;;;0.70;0.57;;;;;16.50;100619.00;;;;2071113;28;20210;-54
2023/01/04 05:13:30;;;;;;;0.95;0.50;;;;;16.50;100632.00;;;;2078432;28;20205;-54
2023/01/04 05:14:31;;;;;;;0.80;0.40;;;;;16.50;100626.00;;;;2079086;28;20210;-54
2023/01/04 05:15:33;;;;;;;0.90;0.50;;;;;16.50;100619.00;;;;2079059;28;20279;-54
2023/01/04 05:16:34;;;;;;;2.65;0.60;;;;;16.50;100626.00;;;;2078243;28;20685;-54
2023/01/04 05:17:34;;;;;;;0.90;0.60;;;;;16.50;100621.00;;;;2078455;28;20293;-54
2023/01/04 05:18:34;;;;;;;0.80;0.60;;;;;16.50;100620.00;;;;2078845;28;20221;-54
2023/01/04 05:19:35;;;;;;;1.13;0.50;;;;;16.50;100618.00;;;;2079020;28;20209;-54
2023/01/04 05:20:35;;;;;;;0.80;0.50;;;;;16.50;100613.00;;;;2073519;28;20308;-54
2023/01/04 05:21:35;;;;;;;0.80;0.50;;;;;16.50;100606.00;;;;2078839;28;20248;-54
2023/01/04 05:22:36;;;;;;;0.90;0.60;;;;;16.50;100621.00;;;;2077909;28;20236;-54
2023/01/04 05:23:36;;;;;;;1.00;0.60;;;;;16.50;100621.00;;;;2078898;28;20606;-54
2023/01/04 05:24:36;;;;;;;0.80;0.43;;;;;16.50;100607.00;;;;2075850;28;20241;-54
2023/01/04 05:25:37;;;;;;;0.70;0.50;;;;;16.50;100604.00;;;;2078850;28;20218;-54
2023/01/04 05:26:38;;;;;;;1.83;0.90;;;;;16.50;100593.00;;;;2078462;28;20292;-54
2023/01/04 05:27:38;;;;;;;0.80;0.50;;;;;16.50;100552.00;;;;2077022;28;20225;-54
2023/01/04 05:28:39;;;;;;;0.93;0.40;;;;;16.50;100590.00;;;;2075966;28;20305;-54
2023/01/04 05:30:58;;;;;;;0.65;0.43;;;;;16.50;100600.00;;;;2078968;28;20666;-54
2023/01/04 05:31:58;;;;;;;0.80;0.50;;;;;16.50;100594.00;;;;2073685;28;20219;-54
2023/01/04 05:32:59;;;;;;;1.57;0.50;;;;;16.50;100603.00;;;;2070511;28;20246;-54
2023/01/04 05:33:59;;;;;;;0.90;0.50;;;;;16.50;100600.00;;;;2070717;28;20300;-54
2023/01/04 05:34:59;;;;;;;0.90;0.60;;;;;16.50;100597.00;;;;2070321;28;20218;-54
2023/01/04 05:36:01;;;;;;;0.90;0.50;;;;;16.50;100596.00;;;;2078013;28;20234;-54
2023/01/04 05:37:01;;;;;;;0.80;0.50;;;;;16.50;100609.00;;;;2077601;28;20206;-54
2023/01/04 05:38:01;;;;;;;0.73;0.50;;;;;16.50;100599.00;;;;2078756;28;20654;-54
2023/01/04 05:39:02;;;;;;;1.10;0.50;;;;;16.50;100598.00;;;;2078480;28;20237;-54
2023/01/04 05:40:02;;;;;;;1.27;0.70;;;;;16.50;100602.00;;;;2074516;28;20443;-54
2023/01/04 05:41:03;;;;;;;1.23;0.50;;;;;16.50;100589.00;;;;2074532;28;20221;-54
2023/01/04 05:43:22;;;;;;;1.02;0.50;;;;;16.50;100590.00;;;;2070785;28;20222;-54
2023/01/04 05:44:22;;;;;;;1.30;0.50;;;;;16.50;100603.00;;;;2070659;28;20202;-54
2023/01/04 05:45:23;;;;;;;0.73;0.50;;;;;16.50;100601.00;;;;2070660;28;20727;-54
2023/01/04 05:46:23;;;;;;;0.70;0.37;;;;;16.50;100589.00;;;;2069069;28;20876;-54
2023/01/04 05:47:24;;;;;;;1.33;0.60;;;;;16.50;100593.00;;;;2070643;28;20941;-54
2023/01/04 05:48:24;;;;;;;0.90;0.40;;;;;16.50;100592.00;;;;2070456;28;20915;-54
2023/01/04 05:49:24;;;;;;;0.90;0.57;;;;;16.50;100592.00;;;;2070003;28;20206;-54
2023/01/04 05:50:25;;;;;;;0.70;0.40;;;;;16.50;100598.00;;;;2069477;28;20210;-54
2023/01/04 05:51:25;;;;;;;0.80;0.50;;;;;16.50;100598.00;;;;2070472;28;20210;-54
2023/01/04 05:52:26;;;;;;;0.60;0.40;;;;;16.50;100577.00;;;;2068643;28;20210;-54
2023/01/04 05:53:26;;;;;;;1.03;0.60;;;;;16.50;100571.00;;;;2069949;28;20320;-54
2023/01/04 05:54:26;;;;;;;1.10;0.60;;;;;16.40;100586.00;;;;2070118;28;20214;-54
2023/01/04 05:55:27;;;;;;;0.90;0.50;;;;;16.50;100582.00;;;;2070659;28;20280;-54
2023/01/04 05:56:27;;;;;;;1.10;0.53;;;;;16.50;100575.00;;;;2070408;28;20306;-54
2023/01/04 05:57:27;;;;;;;1.10;0.50;;;;;16.50;100579.00;;;;2068231;28;20234;-54
2023/01/04 05:58:27;;;;;;;1.17;0.50;;;;;16.50;100569.00;;;;2070612;28;20226;-54
2023/01/04 05:59:28;;;;;;;1.17;0.60;;;;;16.50;100573.00;;;;2070506;28;20496;-54